createdAt,value
2022-10-10T00:02:52.359Z,15.13
2022-10-10T00:07:56.610Z,12.63
2022-10-10T00:12:57.959Z,12.63
2022-10-10T00:17:59.342Z,15.05
2022-10-10T00:23:00.749Z,10.20
2022-10-10T00:28:02.767Z,14.98
2022-10-10T00:33:04.102Z,11.43
2022-10-10T00:38:05.546Z,11.43
2022-10-10T00:43:06.855Z,13.25
2022-10-10T00:48:25.978Z,12.25
2022-10-10T00:53:29.467Z,13.35
2022-10-10T00:58:31.611Z,11.63
2022-10-10T01:03:33.001Z,10.93
2022-10-10T01:08:34.673Z,10.85
2022-10-10T01:13:38.862Z,11.80
2022-10-10T01:18:49.144Z,13.32
2022-10-10T01:24:08.626Z,11.10
2022-10-10T01:29:13.802Z,11.07
2022-10-10T01:34:15.155Z,13.27
2022-10-10T01:39:26.817Z,12.68
2022-10-10T01:44:28.248Z,13.38
2022-10-10T01:49:31.358Z,12.75
2022-10-10T01:54:41.722Z,12.55
2022-10-10T01:59:57.471Z,11.48
2022-10-10T02:05:01.763Z,10.40
2022-10-10T02:10:04.272Z,14.90
2022-10-10T02:15:14.108Z,11.63
2022-10-10T02:25:17.820Z,11.52
2022-10-10T02:30:19.568Z,10.55
2022-10-10T02:35:27.469Z,12.38
2022-10-10T02:40:30.831Z,11.50
2022-10-10T02:45:33.294Z,17.48
2022-10-10T02:50:34.961Z,10.90
2022-10-10T02:55:36.339Z,10.88
2022-10-10T03:00:37.682Z,12.73
2022-10-10T03:05:39.006Z,11.55
2022-10-10T03:10:40.355Z,12.70
2022-10-10T03:15:41.708Z,10.80
2022-10-10T03:20:45.347Z,10.55
2022-10-10T03:25:46.944Z,13.23
2022-10-10T03:30:48.297Z,12.15
2022-10-10T03:35:49.639Z,12.60
2022-10-10T03:40:50.954Z,11.10
2022-10-10T03:45:52.270Z,12.20
2022-10-10T03:50:53.606Z,12.63
2022-10-10T03:55:55.585Z,11.38
2022-10-10T04:00:57.948Z,14.55
2022-10-10T04:05:59.435Z,13.20
2022-10-10T04:11:02.075Z,11.98
2022-10-10T04:16:03.903Z,12.52
2022-10-10T04:21:06.093Z,13.25
2022-10-10T04:26:07.738Z,12.38
2022-10-10T04:31:09.149Z,13.88
2022-10-10T04:36:10.696Z,11.65
2022-10-10T04:41:12.107Z,11.75
2022-10-10T04:46:13.430Z,12.23
2022-10-10T04:51:14.929Z,14.52
2022-10-10T04:56:16.288Z,11.05
2022-10-10T05:01:17.699Z,11.90
2022-10-10T05:06:19.188Z,11.90
2022-10-10T05:11:20.523Z,14.15
2022-10-10T05:16:21.927Z,11.15
2022-10-10T05:21:23.654Z,14.23
2022-10-10T05:26:25.120Z,13.35
2022-10-10T05:31:26.490Z,13.88
2022-10-10T05:36:27.876Z,16.58
2022-10-10T05:41:29.291Z,12.40
2022-10-10T05:46:30.908Z,13.25
2022-10-10T05:51:32.661Z,11.77
2022-10-10T05:56:34.031Z,12.73
2022-10-10T06:01:36.324Z,13.93
2022-10-10T06:06:37.679Z,12.27
2022-10-10T06:11:39.064Z,11.43
2022-10-10T06:16:42.105Z,11.73
2022-10-10T06:21:43.490Z,15.88
2022-10-10T06:26:44.848Z,12.77
2022-10-10T06:31:46.311Z,13.43
2022-10-10T06:36:49.379Z,14.38
2022-10-10T06:41:50.745Z,11.98
2022-10-10T06:46:52.623Z,17.33
2022-10-10T06:51:53.972Z,14.50
2022-10-10T06:56:55.345Z,14.68
2022-10-10T07:01:56.792Z,14.27
2022-10-10T07:06:58.206Z,17.15
2022-10-10T07:11:59.550Z,14.82
2022-10-10T07:17:01.069Z,14.95
2022-10-10T07:22:02.518Z,15.48
2022-10-10T07:27:08.625Z,15.73
2022-10-10T07:32:10.338Z,13.85
2022-10-10T07:37:11.791Z,15.18
2022-10-10T07:42:13.202Z,14.35
2022-10-10T07:47:14.629Z,15.43
2022-10-10T07:52:16.105Z,15.43
2022-10-10T07:57:17.495Z,15.00
2022-10-10T08:02:18.830Z,17.38
2022-10-10T08:07:20.382Z,15.80
2022-10-10T08:12:21.736Z,15.30
2022-10-10T08:17:23.210Z,15.25
2022-10-10T08:22:24.741Z,14.80
2022-10-10T08:27:26.121Z,14.32
2022-10-10T08:32:27.547Z,14.57
2022-10-10T08:37:32.774Z,15.77
2022-10-10T08:42:46.900Z,15.90
2022-10-10T08:47:49.376Z,17.92
2022-10-10T08:52:54.115Z,14.93
2022-10-10T08:57:59.580Z,16.40
2022-10-10T09:03:01.565Z,15.68
2022-10-10T09:08:09.119Z,14.30
2022-10-10T09:13:36.746Z,15.98
2022-10-10T09:18:56.187Z,13.70
2022-10-10T09:23:57.713Z,17.33
2022-10-10T09:28:59.127Z,16.27
2022-10-10T09:34:00.428Z,16.27
2022-10-10T09:39:04.193Z,20.27
2022-10-10T09:44:07.739Z,17.33
2022-10-10T09:49:10.574Z,19.63
2022-10-10T09:54:12.974Z,18.92
2022-10-10T09:59:33.179Z,16.55
2022-10-10T10:04:34.572Z,16.50
2022-10-10T10:09:36.164Z,15.68
2022-10-10T10:14:38.238Z,19.52
2022-10-10T10:19:40.975Z,17.95
2022-10-10T10:24:42.385Z,17.38
2022-10-10T10:30:01.665Z,15.57
2022-10-10T10:35:03.109Z,18.00
2022-10-10T10:40:10.313Z,18.95
2022-10-10T10:45:14.845Z,20.58
2022-10-10T10:50:35.014Z,19.58
2022-10-10T10:55:43.667Z,17.10
2022-10-10T11:01:23.846Z,18.27
2022-10-10T11:06:26.808Z,15.90
2022-10-10T11:11:42.594Z,18.98
2022-10-10T11:16:49.473Z,16.65
2022-10-10T11:21:54.968Z,15.30
2022-10-10T11:26:57.350Z,19.75
2022-10-10T11:32:06.900Z,16.27
2022-10-10T11:42:16.033Z,15.65
2022-10-10T11:47:36.377Z,13.25
2022-10-10T11:52:41.805Z,13.38
2022-10-10T11:57:46.572Z,12.88
2022-10-10T12:02:48.536Z,10.57
2022-10-10T12:08:00.907Z,8.70
2022-10-10T12:13:16.826Z,7.80
2022-10-10T12:18:38.425Z,4.35
2022-10-10T12:23:44.371Z,5.00
2022-10-10T12:29:08.845Z,6.28
2022-10-10T12:34:13.295Z,3.72
2022-10-10T12:39:14.608Z,5.30
2022-10-10T12:44:23.649Z,8.55
2022-10-10T12:49:25.630Z,7.10
2022-10-10T12:54:29.274Z,11.00
2022-10-10T12:59:31.070Z,12.13
2022-10-10T13:04:34.165Z,9.40
2022-10-10T13:09:36.902Z,10.48
2022-10-10T13:14:42.584Z,7.30
2022-10-10T13:19:43.982Z,11.93
2022-10-10T13:24:46.221Z,11.75
2022-10-10T13:29:47.808Z,11.10
2022-10-10T13:34:51.778Z,15.25
2022-10-10T13:39:53.301Z,12.07
2022-10-10T13:44:55.186Z,11.63
2022-10-10T13:49:56.839Z,12.77
2022-10-10T13:55:14.045Z,15.30
2022-10-10T14:00:16.735Z,16.08
2022-10-10T14:05:24.332Z,17.55
2022-10-10T14:10:27.203Z,14.63
2022-10-10T14:15:31.314Z,14.25
2022-10-10T14:20:32.667Z,20.35
2022-10-10T14:25:34.184Z,22.65
2022-10-10T14:30:36.814Z,13.65
2022-10-10T14:35:38.367Z,15.32
2022-10-10T14:40:41.758Z,21.63
2022-10-10T14:45:43.582Z,19.42
2022-10-10T14:50:47.038Z,18.65
2022-10-10T14:55:50.449Z,15.70
2022-10-10T15:00:55.645Z,14.88
2022-10-10T15:05:57.007Z,14.32
2022-10-10T15:10:58.813Z,14.82
2022-10-10T15:16:00.261Z,13.52
2022-10-10T15:21:01.930Z,16.80
2022-10-10T15:26:04.848Z,13.43
2022-10-10T15:31:06.825Z,12.45
2022-10-10T15:36:10.428Z,12.55
2022-10-10T15:41:12.945Z,9.82
2022-10-10T15:46:14.383Z,13.73
2022-10-10T15:51:16.027Z,17.75
2022-10-10T15:56:17.706Z,13.88
2022-10-10T16:01:20.078Z,14.80
2022-10-10T16:06:22.941Z,15.02
2022-10-10T16:11:25.144Z,12.82
2022-10-10T16:16:27.539Z,11.82
2022-10-10T16:21:29.908Z,16.50
2022-10-10T16:26:33.455Z,18.75
2022-10-10T16:31:36.799Z,16.23
2022-10-10T16:36:38.313Z,14.52
2022-10-10T16:41:48.530Z,14.55
2022-10-10T16:46:51.363Z,15.70
2022-10-10T16:51:52.686Z,15.88
2022-10-10T16:56:54.019Z,21.08
2022-10-10T17:01:55.485Z,20.42
2022-10-10T17:06:56.963Z,13.98
2022-10-10T17:11:58.556Z,10.82
2022-10-10T17:17:11.600Z,12.10
2022-10-10T17:22:14.322Z,11.13
2022-10-10T17:27:15.785Z,14.80
2022-10-10T17:32:17.228Z,14.20
2022-10-10T17:37:18.625Z,13.77
2022-10-10T17:42:20.125Z,16.70
2022-10-10T17:47:21.636Z,16.30
2022-10-10T17:52:24.839Z,12.40
2022-10-10T17:57:26.406Z,11.63
2022-10-10T18:02:28.179Z,14.60
2022-10-10T18:07:29.565Z,16.35
2022-10-10T18:12:30.986Z,14.25
2022-10-10T18:17:32.397Z,16.15
2022-10-10T18:22:33.757Z,16.55
2022-10-10T18:27:35.842Z,22.90
2022-10-10T18:32:37.292Z,21.55
2022-10-10T18:37:38.709Z,17.98
2022-10-10T18:42:41.108Z,12.88
2022-10-10T18:47:42.515Z,13.45
2022-10-10T18:52:46.365Z,19.55
2022-10-10T18:57:47.755Z,15.95
2022-10-10T19:02:49.159Z,12.88
2022-10-10T19:07:50.596Z,13.98
2022-10-10T19:12:51.972Z,17.02
2022-10-10T19:17:54.378Z,13.38
2022-10-10T19:22:55.800Z,16.42
2022-10-10T19:27:57.614Z,13.65
2022-10-10T19:32:59.263Z,15.93
2022-10-10T19:38:00.671Z,16.17
2022-10-10T19:43:03.518Z,14.55
2022-10-10T19:48:05.014Z,14.00
2022-10-10T19:53:06.848Z,17.73
2022-10-10T19:58:08.192Z,13.98
2022-10-10T20:03:09.787Z,19.77
2022-10-10T20:08:11.685Z,14.05
2022-10-10T20:13:16.063Z,15.40
2022-10-10T20:18:21.026Z,14.05
2022-10-10T20:23:23.426Z,12.00
2022-10-10T20:28:24.969Z,14.85
2022-10-10T20:33:26.853Z,14.07
2022-10-10T20:38:28.496Z,14.43
2022-10-10T20:43:29.904Z,11.82
2022-10-10T20:48:31.973Z,13.02
2022-10-10T20:53:33.896Z,13.60
2022-10-10T20:58:36.557Z,14.48
2022-10-10T21:03:38.549Z,13.20
2022-10-10T21:08:40.306Z,14.98
2022-10-10T21:13:44.683Z,17.17
2022-10-10T21:18:56.985Z,15.45
2022-10-10T21:23:59.650Z,15.30
2022-10-10T21:29:01.242Z,13.65
2022-10-10T21:34:03.550Z,13.32
2022-10-10T21:39:08.185Z,15.45
2022-10-10T21:44:09.777Z,14.48
2022-10-10T21:49:11.998Z,13.13
2022-10-10T21:54:13.412Z,16.05
2022-10-10T21:59:15.080Z,14.85
2022-10-10T22:04:16.418Z,18.83
2022-10-10T22:09:17.820Z,12.90
2022-10-10T22:14:19.290Z,14.73
2022-10-10T22:19:20.676Z,15.80
2022-10-10T22:24:22.044Z,10.65
2022-10-10T22:29:23.423Z,12.13
2022-10-10T22:34:24.872Z,14.82
2022-10-10T22:39:26.613Z,11.13
2022-10-10T22:44:27.995Z,10.70
2022-10-10T22:49:29.352Z,13.15
2022-10-10T22:54:30.745Z,10.88
2022-10-10T22:59:32.133Z,11.15
2022-10-10T23:04:33.463Z,10.73
2022-10-10T23:09:34.900Z,12.50
2022-10-10T23:14:36.261Z,10.15
2022-10-10T23:19:37.603Z,12.25
2022-10-10T23:24:39.279Z,11.23
2022-10-10T23:29:40.636Z,7.57
2022-10-10T23:34:42.092Z,12.43
2022-10-10T23:39:43.492Z,11.40
2022-10-10T23:44:44.902Z,11.13
2022-10-10T23:49:46.304Z,9.90
2022-10-10T23:54:47.891Z,11.45
2022-10-10T23:59:49.323Z,7.78
